sensor_id;sensor_type;location;lat;lon;timestamp;pressure;altitude;pressure_sealevel;temperature;humidity
29215;BME280;16252;49.816;7.964;2023-02-28T00:00:11;101069.97;;;2.94;42.69
29215;BME280;16252;49.816;7.964;2023-02-28T00:02:37;101075.34;;;2.91;42.52
29215;BME280;16252;49.816;7.964;2023-02-28T00:05:04;100928.91;;;2.02;42.86
29215;BME280;16252;49.816;7.964;2023-02-28T00:07:30;101072.75;;;2.88;42.87
29215;BME280;16252;49.816;7.964;2023-02-28T00:09:56;101014.81;;;2.49;42.65
29215;BME280;16252;49.816;7.964;2023-02-28T00:12:21;101027.84;;;2.55;42.94
29215;BME280;16252;49.816;7.964;2023-02-28T00:14:46;101037.34;;;2.63;42.94
29215;BME280;16252;49.816;7.964;2023-02-28T00:17:12;101059.22;;;2.68;42.90
29215;BME280;16252;49.816;7.964;2023-02-28T00:19:37;101040.06;;;2.59;42.89
29215;BME280;16252;49.816;7.964;2023-02-28T00:22:02;101042.63;;;2.63;43.06
29215;BME280;16252;49.816;7.964;2023-02-28T00:24:27;101047.88;;;2.64;43.11
29215;BME280;16252;49.816;7.964;2023-02-28T00:26:53;101004.66;;;2.34;43.00
29215;BME280;16252;49.816;7.964;2023-02-28T00:29:18;101072.28;;;2.74;43.15
29215;BME280;16252;49.816;7.964;2023-02-28T00:31:43;101060.28;;;2.60;43.20
29215;BME280;16252;49.816;7.964;2023-02-28T00:34:08;101038.56;;;2.51;43.28
29215;BME280;16252;49.816;7.964;2023-02-28T00:36:34;101032.44;;;2.49;43.31
29215;BME280;16252;49.816;7.964;2023-02-28T00:38:59;101048.09;;;2.56;43.39
29215;BME280;16252;49.816;7.964;2023-02-28T00:41:24;101039.44;;;2.50;43.20
29215;BME280;16252;49.816;7.964;2023-02-28T00:43:49;101051.72;;;2.52;43.29
29215;BME280;16252;49.816;7.964;2023-02-28T00:46:15;101050.81;;;2.53;43.39
29215;BME280;16252;49.816;7.964;2023-02-28T00:48:40;101040.47;;;2.44;43.49
29215;BME280;16252;49.816;7.964;2023-02-28T00:51:05;101066.50;;;2.59;43.53
29215;BME280;16252;49.816;7.964;2023-02-28T00:53:31;101055.28;;;2.50;43.40
29215;BME280;16252;49.816;7.964;2023-02-28T00:55:57;101011.06;;;2.24;43.50
29215;BME280;16252;49.816;7.964;2023-02-28T00:58:23;101058.94;;;2.46;43.71
29215;BME280;16252;49.816;7.964;2023-02-28T01:00:49;101047.53;;;2.44;43.58
29215;BME280;16252;49.816;7.964;2023-02-28T01:03:16;101038.03;;;2.36;43.94
29215;BME280;16252;49.816;7.964;2023-02-28T01:05:41;101056.44;;;2.39;43.59
29215;BME280;16252;49.816;7.964;2023-02-28T01:08:06;101033.91;;;2.26;43.99
29215;BME280;16252;49.816;7.964;2023-02-28T01:10:32;101043.31;;;2.36;43.81
29215;BME280;16252;49.816;7.964;2023-02-28T01:12:57;101007.06;;;2.07;43.83
29215;BME280;16252;49.816;7.964;2023-02-28T01:15:23;101077.44;;;2.46;43.89
29215;BME280;16252;49.816;7.964;2023-02-28T01:17:48;101015.75;;;2.12;43.86
29215;BME280;16252;49.816;7.964;2023-02-28T01:20:13;101009.72;;;2.07;43.95
29215;BME280;16252;49.816;7.964;2023-02-28T01:22:39;101041.91;;;2.23;43.78
29215;BME280;16252;49.816;7.964;2023-02-28T01:25:04;100980.28;;;1.88;43.79
29215;BME280;16252;49.816;7.964;2023-02-28T01:27:30;101065.34;;;2.35;43.83
29215;BME280;16252;49.816;7.964;2023-02-28T01:29:55;101054.94;;;2.29;43.89
29215;BME280;16252;49.816;7.964;2023-02-28T01:32:20;101041.06;;;2.21;44.01
29215;BME280;16252;49.816;7.964;2023-02-28T01:34:46;101061.09;;;2.30;43.88
29215;BME280;16252;49.816;7.964;2023-02-28T01:37:11;101037.63;;;2.17;44.04
29215;BME280;16252;49.816;7.964;2023-02-28T01:39:36;101035.81;;;2.20;43.89
29215;BME280;16252;49.816;7.964;2023-02-28T01:42:02;101024.56;;;2.13;44.07
29215;BME280;16252;49.816;7.964;2023-02-28T01:45:00;101061.81;;;2.36;44.46
29215;BME280;16252;49.816;7.964;2023-02-28T01:47:33;101053.06;;;2.33;44.45
29215;BME280;16252;49.816;7.964;2023-02-28T01:50:02;101051.44;;;2.29;44.45
29215;BME280;16252;49.816;7.964;2023-02-28T01:52:30;101001.34;;;1.90;44.27
29215;BME280;16252;49.816;7.964;2023-02-28T01:54:57;100990.88;;;1.87;44.38
29215;BME280;16252;49.816;7.964;2023-02-28T01:57:29;101052.50;;;2.22;44.67
29215;BME280;16252;49.816;7.964;2023-02-28T02:00:01;101019.47;;;2.05;44.65
29215;BME280;16252;49.816;7.964;2023-02-28T02:02:32;101027.34;;;2.07;44.35
29215;BME280;16252;49.816;7.964;2023-02-28T02:05:04;101048.00;;;2.25;44.92
29215;BME280;16252;49.816;7.964;2023-02-28T02:07:32;101048.06;;;2.24;44.70
29215;BME280;16252;49.816;7.964;2023-02-28T02:15:44;101016.78;;;2.07;44.72
29215;BME280;16252;49.816;7.964;2023-02-28T02:18:25;101037.59;;;2.19;44.85
29215;BME280;16252;49.816;7.964;2023-02-28T02:23:43;101035.06;;;2.14;44.55
29215;BME280;16252;49.816;7.964;2023-02-28T02:34:43;101033.34;;;2.13;45.19
29215;BME280;16252;49.816;7.964;2023-02-28T02:40:29;101032.47;;;2.13;45.11
29215;BME280;16252;49.816;7.964;2023-02-28T02:43:01;101024.69;;;2.07;45.04
29215;BME280;16252;49.816;7.964;2023-02-28T02:48:07;101037.00;;;2.08;44.89
29215;BME280;16252;49.816;7.964;2023-02-28T02:50:41;101033.38;;;2.12;45.08
29215;BME280;16252;49.816;7.964;2023-02-28T02:53:09;101033.53;;;2.06;44.84
29215;BME280;16252;49.816;7.964;2023-02-28T02:55:40;101029.94;;;2.08;45.33
29215;BME280;16252;49.816;7.964;2023-02-28T02:58:13;101005.75;;;1.89;45.31
29215;BME280;16252;49.816;7.964;2023-02-28T03:00:44;100986.72;;;1.77;45.18
29215;BME280;16252;49.816;7.964;2023-02-28T03:03:12;101019.03;;;1.88;44.91
29215;BME280;16252;49.816;7.964;2023-02-28T03:05:48;101033.56;;;2.04;45.63
29215;BME280;16252;49.816;7.964;2023-02-28T03:08:14;101006.88;;;1.81;45.11
29215;BME280;16252;49.816;7.964;2023-02-28T03:10:42;101032.91;;;1.94;45.34
29215;BME280;16252;49.816;7.964;2023-02-28T03:16:32;101038.94;;;2.00;45.67
29215;BME280;16252;49.816;7.964;2023-02-28T03:21:53;101029.56;;;1.88;45.09
29215;BME280;16252;49.816;7.964;2023-02-28T03:24:33;101011.28;;;1.80;45.72
29215;BME280;16252;49.816;7.964;2023-02-28T03:27:18;101022.66;;;1.82;45.66
29215;BME280;16252;49.816;7.964;2023-02-28T03:29:51;101034.09;;;1.83;45.45
29215;BME280;16252;49.816;7.964;2023-02-28T03:32:25;101028.00;;;1.79;45.46
29215;BME280;16252;49.816;7.964;2023-02-28T03:35:06;101029.75;;;1.80;45.62
29215;BME280;16252;49.816;7.964;2023-02-28T03:37:35;101030.75;;;1.74;45.39
29215;BME280;16252;49.816;7.964;2023-02-28T03:40:12;101027.31;;;1.72;45.72
29215;BME280;16252;49.816;7.964;2023-02-28T03:42:41;100977.06;;;1.38;45.44
29215;BME280;16252;49.816;7.964;2023-02-28T03:45:15;101036.19;;;1.68;45.51
29215;BME280;16252;49.816;7.964;2023-02-28T03:47:54;100998.81;;;1.49;45.67
29215;BME280;16252;49.816;7.964;2023-02-28T03:50:26;100997.25;;;1.41;45.49
29215;BME280;16252;49.816;7.964;2023-02-28T03:52:58;101024.13;;;1.57;45.75
29215;BME280;16252;49.816;7.964;2023-02-28T03:55:28;101035.44;;;1.62;45.56
29215;BME280;16252;49.816;7.964;2023-02-28T04:00:40;101007.75;;;1.42;45.66
29215;BME280;16252;49.816;7.964;2023-02-28T04:03:08;100950.63;;;1.04;45.21
29215;BME280;16252;49.816;7.964;2023-02-28T04:05:50;101031.19;;;1.56;45.76
29215;BME280;16252;49.816;7.964;2023-02-28T04:08:16;101038.31;;;1.51;45.15
29215;BME280;16252;49.816;7.964;2023-02-28T04:10:42;101014.84;;;1.40;45.64
29215;BME280;16252;49.816;7.964;2023-02-28T04:13:08;100997.50;;;1.28;45.71
29215;BME280;16252;49.816;7.964;2023-02-28T04:15:34;101040.13;;;1.49;45.89
29215;BME280;16252;49.816;7.964;2023-02-28T04:17:59;101023.69;;;1.38;46.07
29215;BME280;16252;49.816;7.964;2023-02-28T04:20:33;101007.97;;;1.33;46.32
29215;BME280;16252;49.816;7.964;2023-02-28T04:22:58;101034.94;;;1.46;46.38
29215;BME280;16252;49.816;7.964;2023-02-28T04:25:23;101038.31;;;1.52;46.62
29215;BME280;16252;49.816;7.964;2023-02-28T04:27:49;101006.19;;;1.34;46.59
29215;BME280;16252;49.816;7.964;2023-02-28T04:30:14;101016.44;;;1.47;46.58
29215;BME280;16252;49.816;7.964;2023-02-28T04:32:40;100978.25;;;1.25;46.43
29215;BME280;16252;49.816;7.964;2023-02-28T04:35:05;101016.34;;;1.52;46.52
29215;BME280;16252;49.816;7.964;2023-02-28T04:37:31;101031.94;;;1.61;46.48
29215;BME280;16252;49.816;7.964;2023-02-28T04:40:00;101038.03;;;1.65;46.35
29215;BME280;16252;49.816;7.964;2023-02-28T04:42:28;101027.44;;;1.66;46.86
29215;BME280;16252;49.816;7.964;2023-02-28T04:45:00;101029.09;;;1.70;46.48
29215;BME280;16252;49.816;7.964;2023-02-28T04:47:25;101017.78;;;1.65;46.49
29215;BME280;16252;49.816;7.964;2023-02-28T04:49:50;101025.63;;;1.68;46.51
29215;BME280;16252;49.816;7.964;2023-02-28T04:52:19;100944.88;;;1.24;46.82
29215;BME280;16252;49.816;7.964;2023-02-28T04:54:44;101032.44;;;1.77;46.56
29215;BME280;16252;49.816;7.964;2023-02-28T04:57:10;101018.63;;;1.67;46.49
29215;BME280;16252;49.816;7.964;2023-02-28T04:59:35;100982.06;;;1.50;46.60
29215;BME280;16252;49.816;7.964;2023-02-28T05:02:00;101026.41;;;1.72;46.45
29215;BME280;16252;49.816;7.964;2023-02-28T05:04:31;101037.69;;;1.79;46.67
29215;BME280;16252;49.816;7.964;2023-02-28T05:07:00;101018.53;;;1.70;46.72
29215;BME280;16252;49.816;7.964;2023-02-28T05:09:25;101034.19;;;1.78;46.73
29215;BME280;16252;49.816;7.964;2023-02-28T05:11:51;101004.72;;;1.59;46.62
29215;BME280;16252;49.816;7.964;2023-02-28T05:14:16;101022.97;;;1.70;46.48
29215;BME280;16252;49.816;7.964;2023-02-28T05:16:42;101016.00;;;1.66;46.81
29215;BME280;16252;49.816;7.964;2023-02-28T05:19:10;101001.31;;;1.56;46.90
29215;BME280;16252;49.816;7.964;2023-02-28T05:21:49;100956.09;;;1.34;47.06
29215;BME280;16252;49.816;7.964;2023-02-28T05:24:18;100919.78;;;1.06;46.80
29215;BME280;16252;49.816;7.964;2023-02-28T05:26:48;101010.06;;;1.56;46.70
29215;BME280;16252;49.816;7.964;2023-02-28T05:29:22;100975.38;;;1.36;46.70
29215;BME280;16252;49.816;7.964;2023-02-28T05:31:50;101011.69;;;1.62;46.62
29215;BME280;16252;49.816;7.964;2023-02-28T05:34:15;101034.22;;;1.77;46.54
29215;BME280;16252;49.816;7.964;2023-02-28T05:36:44;101012.59;;;1.62;46.50
29215;BME280;16252;49.816;7.964;2023-02-28T05:39:10;101015.09;;;1.67;46.65
29215;BME280;16252;49.816;7.964;2023-02-28T05:41:39;101035.16;;;1.74;46.47
29215;BME280;16252;49.816;7.964;2023-02-28T05:44:04;101010.06;;;1.56;46.51
29215;BME280;16252;49.816;7.964;2023-02-28T05:46:29;101051.75;;;1.79;46.57
29215;BME280;16252;49.816;7.964;2023-02-28T05:48:55;101033.44;;;1.73;46.50
29215;BME280;16252;49.816;7.964;2023-02-28T05:51:22;101045.72;;;1.74;46.53
29215;BME280;16252;49.816;7.964;2023-02-28T05:53:48;101048.34;;;1.74;46.43
29215;BME280;16252;49.816;7.964;2023-02-28T05:56:14;101040.44;;;1.74;46.33
29215;BME280;16252;49.816;7.964;2023-02-28T05:58:39;101001.41;;;1.51;46.42
29215;BME280;16252;49.816;7.964;2023-02-28T06:01:34;101057.69;;;1.89;46.96
29215;BME280;16252;49.816;7.964;2023-02-28T06:04:00;101056.09;;;1.82;46.43
29215;BME280;16252;49.816;7.964;2023-02-28T06:06:26;101030.16;;;1.62;46.34
29215;BME280;16252;49.816;7.964;2023-02-28T06:08:51;101041.47;;;1.67;46.40
29215;BME280;16252;49.816;7.964;2023-02-28T06:11:17;101057.25;;;1.70;46.22
29215;BME280;16252;49.816;7.964;2023-02-28T06:13:44;101067.66;;;1.76;46.27
29215;BME280;16252;49.816;7.964;2023-02-28T06:16:10;101054.56;;;1.71;46.48
29215;BME280;16252;49.816;7.964;2023-02-28T06:18:36;101063.31;;;1.73;46.43
29215;BME280;16252;49.816;7.964;2023-02-28T06:21:01;101044.25;;;1.62;46.40
29215;BME280;16252;49.816;7.964;2023-02-28T06:23:27;101058.91;;;1.74;46.56
29215;BME280;16252;49.816;7.964;2023-02-28T06:25:52;101049.53;;;1.62;46.47
29215;BME280;16252;49.816;7.964;2023-02-28T06:28:18;101079.13;;;1.75;46.38
29215;BME280;16252;49.816;7.964;2023-02-28T06:30:44;101037.44;;;1.52;46.52
29215;BME280;16252;49.816;7.964;2023-02-28T06:33:09;101076.69;;;1.66;46.44
29215;BME280;16252;49.816;7.964;2023-02-28T06:35:35;101055.84;;;1.55;46.57
29215;BME280;16252;49.816;7.964;2023-02-28T06:38:00;101064.50;;;1.60;46.70
29215;BME280;16252;49.816;7.964;2023-02-28T06:40:25;101047.22;;;1.47;46.55
29215;BME280;16252;49.816;7.964;2023-02-28T06:42:51;101047.34;;;1.41;46.67
29215;BME280;16252;49.816;7.964;2023-02-28T06:45:17;101059.34;;;1.54;46.65
29215;BME280;16252;49.816;7.964;2023-02-28T06:47:42;101068.97;;;1.57;46.50
29215;BME280;16252;49.816;7.964;2023-02-28T06:50:11;101079.53;;;1.57;47.22
29215;BME280;16252;49.816;7.964;2023-02-28T06:52:37;101091.78;;;1.59;46.67
29215;BME280;16252;49.816;7.964;2023-02-28T06:55:05;101092.63;;;1.61;46.76
29215;BME280;16252;49.816;7.964;2023-02-28T06:57:31;101069.97;;;1.52;46.96
29215;BME280;16252;49.816;7.964;2023-02-28T07:00:03;101080.28;;;1.63;47.35
29215;BME280;16252;49.816;7.964;2023-02-28T07:02:29;101098.56;;;1.71;47.08
29215;BME280;16252;49.816;7.964;2023-02-28T07:04:54;101093.28;;;1.71;47.10
29215;BME280;16252;49.816;7.964;2023-02-28T07:07:20;101069.88;;;1.57;47.05
29215;BME280;16252;49.816;7.964;2023-02-28T07:09:45;101107.06;;;1.84;47.08
29215;BME280;16252;49.816;7.964;2023-02-28T07:12:10;101096.66;;;1.78;47.04
29215;BME280;16252;49.816;7.964;2023-02-28T07:14:36;101107.75;;;1.92;46.97
29215;BME280;16252;49.816;7.964;2023-02-28T07:17:02;101086.91;;;1.80;47.12
29215;BME280;16252;49.816;7.964;2023-02-28T07:19:28;101085.13;;;1.82;47.22
29215;BME280;16252;49.816;7.964;2023-02-28T07:21:53;101085.84;;;1.88;47.21
29215;BME280;16252;49.816;7.964;2023-02-28T07:24:19;101047.59;;;1.69;47.04
29215;BME280;16252;49.816;7.964;2023-02-28T07:26:44;101079.66;;;1.89;47.08
29215;BME280;16252;49.816;7.964;2023-02-28T07:29:09;101097.75;;;2.06;47.15
29215;BME280;16252;49.816;7.964;2023-02-28T07:31:35;101095.88;;;2.11;47.07
29215;BME280;16252;49.816;7.964;2023-02-28T07:34:00;101118.50;;;2.22;47.02
29215;BME280;16252;49.816;7.964;2023-02-28T07:36:25;101085.41;;;2.08;47.05
29215;BME280;16252;49.816;7.964;2023-02-28T07:38:51;101107.88;;;2.25;47.08
29215;BME280;16252;49.816;7.964;2023-02-28T07:41:18;101089.50;;;2.20;47.14
29215;BME280;16252;49.816;7.964;2023-02-28T07:43:44;101091.19;;;2.23;47.11
29215;BME280;16252;49.816;7.964;2023-02-28T07:46:11;101116.34;;;2.39;47.25
29215;BME280;16252;49.816;7.964;2023-02-28T07:48:37;101100.56;;;2.36;47.07
29215;BME280;16252;49.816;7.964;2023-02-28T07:51:03;101113.53;;;2.45;47.19
29215;BME280;16252;49.816;7.964;2023-02-28T07:53:29;101073.41;;;2.31;47.27
29215;BME280;16252;49.816;7.964;2023-02-28T07:55:59;101089.91;;;2.39;47.50
29215;BME280;16252;49.816;7.964;2023-02-28T07:58:25;101088.78;;;2.49;47.14
29215;BME280;16252;49.816;7.964;2023-02-28T08:00:52;101100.06;;;2.56;47.29
29215;BME280;16252;49.816;7.964;2023-02-28T08:03:18;101111.09;;;2.72;47.19
29215;BME280;16252;49.816;7.964;2023-02-28T08:05:45;101116.22;;;2.78;47.00
29215;BME280;16252;49.816;7.964;2023-02-28T08:08:10;101107.44;;;2.77;46.99
29215;BME280;16252;49.816;7.964;2023-02-28T08:10:36;101099.47;;;2.79;46.73
29215;BME280;16252;49.816;7.964;2023-02-28T08:13:04;101087.88;;;2.83;47.04
29215;BME280;16252;49.816;7.964;2023-02-28T08:15:29;101073.91;;;2.79;46.75
29215;BME280;16252;49.816;7.964;2023-02-28T08:17:55;101097.19;;;2.98;46.35
29215;BME280;16252;49.816;7.964;2023-02-28T08:20:24;101082.19;;;2.98;46.46
29215;BME280;16252;49.816;7.964;2023-02-28T08:22:50;101110.78;;;3.17;46.44
29215;BME280;16252;49.816;7.964;2023-02-28T08:25:15;101103.59;;;3.20;46.31
29215;BME280;16252;49.816;7.964;2023-02-28T08:27:41;101114.72;;;3.33;45.85
29215;BME280;16252;49.816;7.964;2023-02-28T08:30:08;101090.25;;;3.25;45.99
29215;BME280;16252;49.816;7.964;2023-02-28T08:32:34;101117.84;;;3.47;46.07
29215;BME280;16252;49.816;7.964;2023-02-28T08:35:00;101088.81;;;3.44;45.88
29215;BME280;16252;49.816;7.964;2023-02-28T08:37:25;101106.88;;;3.60;45.63
29215;BME280;16252;49.816;7.964;2023-02-28T08:39:51;101092.94;;;3.55;45.75
29215;BME280;16252;49.816;7.964;2023-02-28T08:42:19;101083.84;;;3.63;45.37
29215;BME280;16252;49.816;7.964;2023-02-28T08:44:45;101117.53;;;3.86;45.54
29215;BME280;16252;49.816;7.964;2023-02-28T08:47:10;101094.81;;;3.79;45.22
29215;BME280;16252;49.816;7.964;2023-02-28T08:49:36;101078.94;;;3.79;45.34
29215;BME280;16252;49.816;7.964;2023-02-28T08:52:02;101105.50;;;4.04;45.17
29215;BME280;16252;49.816;7.964;2023-02-28T08:54:28;101103.56;;;4.09;45.13
29215;BME280;16252;49.816;7.964;2023-02-28T08:56:58;101112.06;;;4.21;44.90
29215;BME280;16252;49.816;7.964;2023-02-28T08:59:24;101118.16;;;4.23;44.72
29215;BME280;16252;49.816;7.964;2023-02-28T09:01:49;101095.38;;;4.17;44.61
29215;BME280;16252;49.816;7.964;2023-02-28T09:04:14;101101.25;;;4.27;44.49
29215;BME280;16252;49.816;7.964;2023-02-28T09:06:40;101091.72;;;4.21;44.64
29215;BME280;16252;49.816;7.964;2023-02-28T09:09:06;101114.97;;;4.40;44.87
29215;BME280;16252;49.816;7.964;2023-02-28T09:11:33;101105.19;;;4.42;44.66
29215;BME280;16252;49.816;7.964;2023-02-28T09:13:59;101109.38;;;4.49;44.74
29215;BME280;16252;49.816;7.964;2023-02-28T09:16:25;101112.50;;;4.60;44.48
29215;BME280;16252;49.816;7.964;2023-02-28T09:18:51;101082.16;;;4.44;44.38
29215;BME280;16252;49.816;7.964;2023-02-28T09:21:18;101111.25;;;4.72;44.13
29215;BME280;16252;49.816;7.964;2023-02-28T09:23:44;101118.06;;;4.79;44.07
29215;BME280;16252;49.816;7.964;2023-02-28T09:26:22;101114.06;;;4.92;44.01
29215;BME280;16252;49.816;7.964;2023-02-28T09:28:47;101099.97;;;4.90;44.19
29215;BME280;16252;49.816;7.964;2023-02-28T09:31:18;101107.25;;;5.10;43.89
29215;BME280;16252;49.816;7.964;2023-02-28T09:33:49;101114.47;;;5.30;43.76
29215;BME280;16252;49.816;7.964;2023-02-28T09:36:14;101106.09;;;5.41;43.56
29215;BME280;16252;49.816;7.964;2023-02-28T09:38:40;101130.53;;;5.51;43.20
29215;BME280;16252;49.816;7.964;2023-02-28T09:41:13;101110.50;;;5.65;42.92
29215;BME280;16252;49.816;7.964;2023-02-28T09:43:43;101107.44;;;5.76;42.83
29215;BME280;16252;49.816;7.964;2023-02-28T09:46:22;101115.78;;;5.89;42.60
29215;BME280;16252;49.816;7.964;2023-02-28T09:48:50;101093.13;;;5.80;42.67
29215;BME280;16252;49.816;7.964;2023-02-28T09:53:54;101113.53;;;6.02;42.27
29215;BME280;16252;49.816;7.964;2023-02-28T09:56:36;101108.03;;;6.06;41.53
29215;BME280;16252;49.816;7.964;2023-02-28T10:02:02;101114.16;;;6.08;40.70
29215;BME280;16252;49.816;7.964;2023-02-28T10:04:40;101098.34;;;6.05;41.59
29215;BME280;16252;49.816;7.964;2023-02-28T10:07:18;101095.63;;;6.07;41.68
29215;BME280;16252;49.816;7.964;2023-02-28T10:09:47;101102.00;;;6.03;41.67
29215;BME280;16252;49.816;7.964;2023-02-28T10:12:16;101102.06;;;6.01;41.40
29215;BME280;16252;49.816;7.964;2023-02-28T10:14:45;101116.44;;;6.18;41.04
29215;BME280;16252;49.816;7.964;2023-02-28T10:17:27;101102.47;;;6.13;40.97
29215;BME280;16252;49.816;7.964;2023-02-28T10:20:05;101113.41;;;6.27;40.66
29215;BME280;16252;49.816;7.964;2023-02-28T10:22:58;101092.53;;;6.18;40.96
29215;BME280;16252;49.816;7.964;2023-02-28T10:25:28;101104.31;;;6.33;41.87
29215;BME280;16252;49.816;7.964;2023-02-28T10:27:57;101110.94;;;6.44;41.61
29215;BME280;16252;49.816;7.964;2023-02-28T10:30:25;101110.56;;;6.54;41.01
29215;BME280;16252;49.816;7.964;2023-02-28T10:32:53;101112.91;;;6.61;40.67
29215;BME280;16252;49.816;7.964;2023-02-28T10:35:20;101121.03;;;6.79;41.23
29215;BME280;16252;49.816;7.964;2023-02-28T10:37:55;101114.38;;;7.09;41.19
29215;BME280;16252;49.816;7.964;2023-02-28T10:45:54;101111.00;;;8.02;40.51
29215;BME280;16252;49.816;7.964;2023-02-28T10:55:58;101106.97;;;8.83;37.42
29215;BME280;16252;49.816;7.964;2023-02-28T10:58:26;101079.44;;;8.65;38.27
29215;BME280;16252;49.816;7.964;2023-02-28T11:00:53;101085.25;;;8.56;38.64
29215;BME280;16252;49.816;7.964;2023-02-28T11:03:30;101077.09;;;8.42;37.72
29215;BME280;16252;49.816;7.964;2023-02-28T11:05:57;101064.94;;;8.17;38.66
29215;BME280;16252;49.816;7.964;2023-02-28T11:08:22;101069.97;;;8.23;38.96
29215;BME280;16252;49.816;7.964;2023-02-28T11:10:56;101071.59;;;8.45;37.75
29215;BME280;16252;49.816;7.964;2023-02-28T11:13:27;101055.97;;;8.55;38.32
29215;BME280;16252;49.816;7.964;2023-02-28T11:15:55;101070.97;;;8.92;38.39
29215;BME280;16252;49.816;7.964;2023-02-28T11:18:47;101075.66;;;9.38;37.78
29215;BME280;16252;49.816;7.964;2023-02-28T11:21:21;101066.31;;;9.78;38.12
29215;BME280;16252;49.816;7.964;2023-02-28T11:23:51;101075.16;;;10.26;37.89
29215;BME280;16252;49.816;7.964;2023-02-28T11:26:37;101072.75;;;10.68;37.42
29215;BME280;16252;49.816;7.964;2023-02-28T11:29:18;101064.38;;;10.88;37.33
29215;BME280;16252;49.816;7.964;2023-02-28T11:32:01;101066.84;;;10.91;35.49
29215;BME280;16252;49.816;7.964;2023-02-28T11:34:27;101063.31;;;10.76;36.14
29215;BME280;16252;49.816;7.964;2023-02-28T11:36:55;101054.66;;;10.57;35.86
29215;BME280;16252;49.816;7.964;2023-02-28T11:39:24;101047.13;;;10.33;35.92
29215;BME280;16252;49.816;7.964;2023-02-28T11:47:09;101047.31;;;9.67;35.84
29215;BME280;16252;49.816;7.964;2023-02-28T11:49:59;101054.38;;;9.52;35.54
29215;BME280;16252;49.816;7.964;2023-02-28T11:52:38;101008.31;;;8.99;35.26
29215;BME280;16252;49.816;7.964;2023-02-28T11:58:05;101047.34;;;8.84;36.16
29215;BME280;16252;49.816;7.964;2023-02-28T12:04:10;101058.09;;;8.65;36.72
29215;BME280;16252;49.816;7.964;2023-02-28T12:09:20;101057.63;;;8.40;35.78
29215;BME280;16252;49.816;7.964;2023-02-28T12:11:56;101057.19;;;8.30;36.18
29215;BME280;16252;49.816;7.964;2023-02-28T12:17:53;101027.13;;;8.09;36.11
29215;BME280;16252;49.816;7.964;2023-02-28T12:20:40;101017.22;;;7.94;36.07
29215;BME280;16252;49.816;7.964;2023-02-28T12:23:37;101039.97;;;8.01;35.90
29215;BME280;16252;49.816;7.964;2023-02-28T12:26:32;101034.88;;;7.96;36.85
29215;BME280;16252;49.816;7.964;2023-02-28T12:29:19;101031.78;;;7.87;36.25
29215;BME280;16252;49.816;7.964;2023-02-28T12:32:14;101043.41;;;7.86;36.66
29215;BME280;16252;49.816;7.964;2023-02-28T12:34:42;101032.53;;;7.71;36.83
29215;BME280;16252;49.816;7.964;2023-02-28T12:37:14;101012.16;;;7.70;36.99
29215;BME280;16252;49.816;7.964;2023-02-28T12:39:46;101018.56;;;7.66;36.68
29215;BME280;16252;49.816;7.964;2023-02-28T12:42:21;101063.13;;;7.81;36.83
29215;BME280;16252;49.816;7.964;2023-02-28T12:44:53;101023.09;;;7.64;36.60
29215;BME280;16252;49.816;7.964;2023-02-28T12:47:19;101044.19;;;7.69;37.13
29215;BME280;16252;49.816;7.964;2023-02-28T12:52:28;101014.41;;;7.60;36.42
29215;BME280;16252;49.816;7.964;2023-02-28T12:55:54;101029.81;;;7.73;36.87
29215;BME280;16252;49.816;7.964;2023-02-28T12:58:10;101020.59;;;7.61;36.50
29215;BME280;16252;49.816;7.964;2023-02-28T13:00:57;101022.25;;;7.64;35.98
29215;BME280;16252;49.816;7.964;2023-02-28T13:06:28;101016.28;;;7.58;36.83
29215;BME280;16252;49.816;7.964;2023-02-28T13:09:13;101055.44;;;7.75;36.63
29215;BME280;16252;49.816;7.964;2023-02-28T13:11:58;100991.81;;;7.50;36.07
29215;BME280;16252;49.816;7.964;2023-02-28T13:14:36;101037.69;;;7.74;35.97
29215;BME280;16252;49.816;7.964;2023-02-28T13:19:42;101022.19;;;7.65;36.21
29215;BME280;16252;49.816;7.964;2023-02-28T13:24:55;101029.53;;;7.60;36.10
29215;BME280;16252;49.816;7.964;2023-02-28T13:27:35;101034.41;;;7.69;36.74
29215;BME280;16252;49.816;7.964;2023-02-28T13:33:21;101024.63;;;7.70;36.33
29215;BME280;16252;49.816;7.964;2023-02-28T13:35:48;101019.72;;;7.60;37.12
29215;BME280;16252;49.816;7.964;2023-02-28T13:38:22;101011.09;;;7.55;36.77
29215;BME280;16252;49.816;7.964;2023-02-28T13:40:48;101000.06;;;7.44;36.98
29215;BME280;16252;49.816;7.964;2023-02-28T13:43:17;101016.28;;;7.58;36.55
29215;BME280;16252;49.816;7.964;2023-02-28T13:46:06;101020.94;;;7.72;36.33
29215;BME280;16252;49.816;7.964;2023-02-28T13:48:29;100993.25;;;7.38;37.03
29215;BME280;16252;49.816;7.964;2023-02-28T13:50:54;101002.19;;;7.37;37.15
29215;BME280;16252;49.816;7.964;2023-02-28T13:56:26;101016.78;;;7.48;37.04
29215;BME280;16252;49.816;7.964;2023-02-28T13:59:43;101027.19;;;7.71;36.43
29215;BME280;16252;49.816;7.964;2023-02-28T14:02:08;101025.75;;;7.64;36.70
29215;BME280;16252;49.816;7.964;2023-02-28T14:04:49;101020.59;;;7.61;36.58
29215;BME280;16252;49.816;7.964;2023-02-28T14:07:23;101016.28;;;7.58;36.93
29215;BME280;16252;49.816;7.964;2023-02-28T14:10:03;100998.84;;;7.51;36.31
29215;BME280;16252;49.816;7.964;2023-02-28T14:13:12;101014.03;;;7.68;36.99
29215;BME280;16252;49.816;7.964;2023-02-28T14:15:58;100982.06;;;7.49;36.55
29215;BME280;16252;49.816;7.964;2023-02-28T14:18:28;100980.41;;;7.47;36.77
29215;BME280;16252;49.816;7.964;2023-02-28T14:20:59;100966.63;;;7.38;37.04
29215;BME280;16252;49.816;7.964;2023-02-28T14:23:50;100991.50;;;7.56;36.88
29215;BME280;16252;49.816;7.964;2023-02-28T14:31:28;100996.91;;;7.55;36.43
29215;BME280;16252;49.816;7.964;2023-02-28T14:34:10;100990.66;;;7.56;36.33
29215;BME280;16252;49.816;7.964;2023-02-28T14:36:42;101008.91;;;7.64;36.87
29215;BME280;16252;49.816;7.964;2023-02-28T14:39:17;100980.19;;;7.51;36.64
29215;BME280;16252;49.816;7.964;2023-02-28T14:41:45;101008.97;;;7.62;37.09
29215;BME280;16252;49.816;7.964;2023-02-28T14:44:25;101006.09;;;7.67;36.78